Time;durP1;ratioP1;P1;durP2;ratioP2;P2;SDS_P1;SDS_P2;PMS_P1;PMS_P2;Temp;Humidity;BMP_temperature;BMP_pressure;BME280_temperature;BME280_humidity;BME280_pressure;Samples;Min_cycle;Max_cycle;Signal;HPM_P1;HPM_P2
2022/12/22 03:25:59;;;;;;;;;;;;;;;19.87;56.19;100185.07;105652;1297;19197;-65
2022/12/22 03:28:26;;;;;;;;;4.00;4.00;;;;;19.87;56.17;100182.02;105675;1289;31347;-65
2022/12/22 03:30:54;;;;;;;;;5.00;5.00;;;;;19.87;56.16;100173.48;105653;1297;18776;-65
2022/12/22 03:33:21;;;;;;;;;4.00;4.00;;;;;19.87;56.00;100176.27;105633;1279;19398;-65
2022/12/22 03:35:48;;;;;;;;;4.50;4.50;;;;;19.87;55.91;100173.20;105663;1279;19750;-65
2022/12/22 03:38:16;;;;;;;;;4.00;2.00;;;;;19.87;55.94;100172.64;105669;1282;18516;-65
2022/12/22 03:40:43;;;;;;;;;4.00;4.00;;;;;19.86;55.98;100169.47;105654;1297;19469;-65
2022/12/22 03:48:41;;;;;;;;;4.00;2.00;;;;;19.86;56.15;100158.26;105667;1275;19592;-65
2022/12/22 03:51:08;;;;;;;;;7.00;4.50;;;;;19.86;56.05;100156.79;105642;1288;18410;-64
2022/12/22 03:53:36;;;;;;;;;4.00;4.00;;;;;19.85;56.10;100153.27;105639;1297;18592;-64
2022/12/22 03:56:03;;;;;;;;;4.00;4.00;;;;;19.85;55.94;100153.60;105609;1280;19258;-65
2022/12/22 03:58:31;;;;;;;;;4.00;4.00;;;;;19.85;55.95;100153.43;105598;1272;19598;-64
2022/12/22 04:00:58;;;;;;;;;4.00;4.00;;;;;19.85;55.94;100153.98;105623;1279;20194;-65
2022/12/22 04:03:26;;;;;;;;;4.50;4.50;;;;;19.85;56.07;100150.20;105636;1279;21047;-64
2022/12/22 04:05:53;;;;;;;;;2.00;2.00;;;;;19.85;55.87;100147.33;105626;1272;18425;-65
2022/12/22 04:08:21;;;;;;;;;4.00;4.00;;;;;19.84;56.01;100151.03;105631;1297;20188;-64
2022/12/22 04:13:33;;;;;;;;;2.00;2.00;;;;;19.85;55.80;100151.67;105639;1297;22550;-65
2022/12/22 04:16:01;;;;;;;;;;;;;;;19.84;55.91;100147.73;105607;1292;18700;-65
2022/12/22 04:18:28;;;;;;;;;4.00;4.00;;;;;19.84;55.94;100137.64;105660;1280;20849;-65
2022/12/22 04:20:56;;;;;;;;;4.00;4.00;;;;;19.83;55.76;100134.08;105660;1272;21112;-65
2022/12/22 04:23:23;;;;;;;;;4.00;4.00;;;;;19.83;56.04;100130.78;105669;1272;18550;-64
2022/12/22 04:25:51;;;;;;;;;2.00;2.00;;;;;19.83;55.93;100125.21;105673;1279;21059;-64
2022/12/22 04:28:18;;;;;;;;;4.50;4.00;;;;;19.84;55.74;100122.08;105653;1287;22285;-64
2022/12/22 04:30:46;;;;;;;;;4.00;4.00;;;;;19.84;55.90;100118.98;105639;1292;18601;-64
2022/12/22 04:33:13;;;;;;;;;4.00;4.00;;;;;19.84;55.76;100111.71;105659;1294;20859;-64
2022/12/22 04:35:40;;;;;;;;;2.00;2.00;;;;;19.84;55.91;100109.74;105656;1297;18859;-64
2022/12/22 04:38:08;;;;;;;;;5.00;4.00;;;;;19.84;55.98;100112.84;105618;1275;21817;-64
2022/12/22 04:40:35;;;;;;;;;4.00;4.00;;;;;19.84;55.97;100119.33;105656;1272;30540;-64
2022/12/22 04:43:03;;;;;;;;;2.00;2.00;;;;;19.84;55.69;100117.36;105626;1279;21464;-64
2022/12/22 04:45:30;;;;;;;;;5.00;4.00;;;;;19.83;55.73;100122.16;105637;1297;18814;-64
2022/12/22 04:47:58;;;;;;;;;5.00;5.00;;;;;19.83;55.69;100122.70;105607;1279;20819;-64
2022/12/22 04:50:25;;;;;;;;;4.00;4.00;;;;;19.83;56.06;100118.11;105662;1279;18545;-64
2022/12/22 04:52:53;;;;;;;;;4.00;4.00;;;;;19.83;55.81;100130.82;105736;1289;18564;-64
2022/12/22 04:55:20;;;;;;;;;5.00;4.00;;;;;19.83;55.69;100132.08;105663;1281;22290;-64
2022/12/22 04:57:47;;;;;;;;;4.00;4.00;;;;;19.83;55.78;100126.84;105664;1273;18414;-64
2022/12/22 05:00:15;;;;;;;;;3.00;2.00;;;;;19.83;55.74;100128.44;105625;1272;21914;-65
2022/12/22 05:02:42;;;;;;;;;4.00;4.00;;;;;19.84;55.79;100124.42;105608;1289;19612;-65
2022/12/22 05:05:10;;;;;;;;;4.00;2.00;;;;;19.83;55.67;100125.63;105644;1282;21289;-64
2022/12/22 05:07:37;;;;;;;;;4.50;4.00;;;;;19.83;55.96;100129.02;105650;1287;18392;-64
2022/12/22 05:10:05;;;;;;;;;4.00;4.00;;;;;19.82;55.91;100133.52;105645;1295;19269;-65
2022/12/22 05:15:17;;;;;;;;;2.00;2.00;;;;;19.82;55.65;100139.30;105665;1297;18846;-65
2022/12/22 05:17:45;;;;;;;;;4.00;4.00;;;;;19.81;55.83;100138.86;105658;1280;19348;-64
2022/12/22 05:20:14;;;;;;;;;2.00;2.00;;;;;19.82;55.57;100134.65;105674;1296;18595;-65
2022/12/22 05:22:42;;;;;;;;;2.00;2.00;;;;;19.82;55.78;100127.00;105633;1297;18697;-65
2022/12/22 05:25:09;;;;;;;;;2.00;2.00;;;;;19.82;55.95;100130.39;105625;1296;19508;-65
2022/12/22 05:27:37;;;;;;;;;;;;;;;19.83;55.63;100126.59;105682;1275;19615;-65
2022/12/22 05:30:04;;;;;;;;;4.00;4.00;;;;;19.81;55.69;100122.02;105470;1279;235277;-65
2022/12/22 05:32:32;;;;;;;;;4.00;4.00;;;;;19.81;55.71;100116.98;105656;1297;19238;-65
2022/12/22 05:34:59;;;;;;;;;4.00;4.00;;;;;19.81;55.90;100110.96;105667;1289;19217;-65
2022/12/22 05:37:26;;;;;;;;;4.00;2.00;;;;;19.81;55.85;100111.30;105616;1297;18520;-65
2022/12/22 05:39:54;;;;;;;;;2.00;2.00;;;;;19.81;55.72;100110.84;105608;1276;20824;-65
2022/12/22 05:42:35;;;;;;;;;4.00;2.00;;;;;19.80;55.81;100110.70;105607;1279;19549;-65
2022/12/22 05:45:03;;;;;;;;;2.00;2.00;;;;;19.80;55.71;100117.41;105630;1272;22164;-65
2022/12/22 05:47:30;;;;;;;;;4.00;4.00;;;;;19.81;55.76;100114.27;105621;1295;22634;-65
2022/12/22 05:49:58;;;;;;;;;2.00;2.00;;;;;19.81;56.00;100112.67;105671;1291;18469;-65
2022/12/22 05:52:25;;;;;;;;;2.00;2.00;;;;;19.81;55.63;100114.46;105650;1279;18519;-64
2022/12/22 05:54:53;;;;;;;;;4.00;2.00;;;;;19.80;55.62;100108.52;105639;1279;22670;-65
2022/12/22 05:57:20;;;;;;;;;2.00;2.00;;;;;19.80;55.69;100115.63;105638;1298;18549;-65
2022/12/22 05:59:47;;;;;;;;;2.00;2.00;;;;;19.81;55.72;100116.78;105621;1297;22206;-64
2022/12/22 06:02:15;;;;;;;;;2.00;2.00;;;;;19.80;55.69;100108.02;105642;1297;19425;-65
2022/12/22 06:04:43;;;;;;;;;2.00;2.00;;;;;19.80;55.77;100099.64;105688;1282;21153;-64
2022/12/22 06:07:10;;;;;;;;;5.00;4.00;;;;;19.81;55.71;100099.37;105663;1294;18566;-65
2022/12/22 06:09:37;;;;;;;;;4.00;4.00;;;;;19.80;55.70;100099.85;105675;1280;20787;-64
2022/12/22 06:12:05;;;;;;;;;2.00;2.00;;;;;19.80;55.79;100103.29;105636;1282;22775;-65
2022/12/22 06:14:33;;;;;;;;;2.00;2.00;;;;;19.81;55.49;100101.24;105456;1297;19404;-65
2022/12/22 06:17:00;;;;;;;;;2.00;2.00;;;;;19.80;55.56;100096.80;105715;1298;19303;-65
2022/12/22 06:19:28;;;;;;;;;;;;;;;19.80;55.73;100092.85;105658;1272;18235;-65
2022/12/22 06:21:55;;;;;;;;;2.00;2.00;;;;;19.80;55.52;100095.33;105645;1279;28855;-65
2022/12/22 06:24:22;;;;;;;;;5.00;4.00;;;;;19.80;55.40;100097.88;105607;1280;20721;-64
2022/12/22 06:26:50;;;;;;;;;4.00;4.00;;;;;19.80;55.63;100099.73;105556;1272;18669;-65
2022/12/22 06:29:17;;;;;;;;;4.00;4.00;;;;;19.80;55.43;100104.75;105645;1280;22312;-65
2022/12/22 06:31:45;;;;;;;;;4.00;4.00;;;;;19.79;55.44;100101.77;105681;1280;20590;-65
2022/12/22 06:34:12;;;;;;;;;4.00;3.00;;;;;19.79;55.44;100109.20;105678;1272;18527;-64
2022/12/22 06:36:40;;;;;;;;;2.00;2.00;;;;;19.79;55.58;100105.60;105641;1297;20754;-64
2022/12/22 06:39:07;;;;;;;;;2.00;2.00;;;;;19.79;55.45;100102.67;105621;1295;19332;-65
2022/12/22 06:44:28;;;;;;;;;4.00;4.00;;;;;19.78;55.43;100095.89;105133;1297;18613;-64
2022/12/22 06:46:56;;;;;;;;;3.00;3.00;;;;;19.78;55.54;100094.16;105159;1301;20839;-64
2022/12/22 06:49:23;;;;;;;;;;;;;;;19.79;55.36;100093.71;105132;1281;18925;-65
2022/12/22 06:51:51;;;;;;;;;5.00;4.00;;;;;19.79;55.45;100088.40;105154;1294;19566;-65
2022/12/22 06:54:18;;;;;;;;;;;;;;;19.78;55.63;100092.13;105149;1280;21866;-64
2022/12/22 06:56:46;;;;;;;;;2.00;2.00;;;;;19.79;55.68;100089.84;105152;1281;19690;-64
2022/12/22 06:59:13;;;;;;;;;4.00;2.00;;;;;19.79;55.58;100090.55;105202;1294;21973;-65
2022/12/22 07:01:43;;;;;;;;;4.00;2.00;;;;;19.78;55.43;100091.29;105166;1286;19787;-64
2022/12/22 07:04:15;;;;;;;;;5.00;4.00;;;;;19.79;55.68;100093.52;105180;1286;19728;-65
2022/12/22 07:06:43;;;;;;;;;4.00;4.00;;;;;19.79;55.60;100090.71;105138;1286;20324;-65
2022/12/22 07:09:10;;;;;;;;;4.00;2.00;;;;;19.78;55.68;100093.02;105154;1306;19193;-65
2022/12/22 07:11:38;;;;;;;;;2.00;2.00;;;;;19.78;55.36;100091.21;105146;1291;18575;-64
2022/12/22 07:14:05;;;;;;;;;3.00;3.00;;;;;19.78;55.59;100089.41;105057;1303;22759;-65
2022/12/22 07:16:33;;;;;;;;;;;;;;;19.78;55.56;100087.02;105050;1288;19623;-65
2022/12/22 07:19:00;;;;;;;;;;;;;;;19.79;55.56;100087.65;105109;1288;18302;-65
2022/12/22 07:21:27;;;;;;;;;4.00;4.00;;;;;19.78;55.57;100085.35;105539;1295;20859;-65
2022/12/22 07:23:55;;;;;;;;;4.00;4.00;;;;;19.78;55.42;100081.41;105637;1279;20659;-64
2022/12/22 07:26:22;;;;;;;;;4.00;4.00;;;;;19.78;55.76;100081.04;105655;1275;18375;-63
2022/12/22 07:28:50;;;;;;;;;2.00;2.00;;;;;19.77;55.52;100080.48;105689;1289;19603;-64
2022/12/22 07:31:17;;;;;;;;;4.00;4.00;;;;;19.78;55.45;100082.55;105619;1279;19845;-64
2022/12/22 07:33:45;;;;;;;;;2.00;2.00;;;;;19.78;55.32;100083.27;105661;1296;18257;-64
2022/12/22 07:36:12;;;;;;;;;1.00;1.00;;;;;19.79;55.45;100088.71;105675;1291;18394;-63
2022/12/22 07:38:40;;;;;;;;;4.00;2.00;;;;;19.79;55.53;100086.88;105547;1296;19872;-64
2022/12/22 07:42:43;;;;;;;;;4.00;4.00;;;;;19.79;55.42;100085.77;105694;1279;23628;-63
2022/12/22 07:43:55;;;;;;;;;4.00;3.00;;;;;19.80;55.56;100084.48;105659;1282;18711;-63
2022/12/22 07:46:22;;;;;;;;;2.00;2.00;;;;;19.80;55.45;100081.73;105510;1272;19866;-63
2022/12/22 07:51:35;;;;;;;;;4.00;4.00;;;;;19.83;55.53;100091.03;105588;1301;20223;-63
2022/12/22 07:54:02;;;;;;;;;4.00;4.00;;;;;19.85;55.81;100091.59;105606;1281;19341;-64
2022/12/22 07:56:30;;;;;;;;;2.00;2.00;;;;;19.87;56.03;100089.95;105639;1279;19904;-63
2022/12/22 07:58:57;;;;;;;;;2.00;2.00;;;;;19.90;55.86;100091.34;105712;1297;24886;-64
2022/12/22 08:01:25;;;;;;;;;4.00;4.00;;;;;19.91;56.08;100083.83;105614;1289;20739;-64
2022/12/22 08:03:52;;;;;;;;;;;;;;;19.90;56.34;100080.98;105644;1297;18466;-65
2022/12/22 08:06:20;;;;;;;;;5.00;4.00;;;;;19.92;56.17;100078.48;105631;1275;18403;-62
2022/12/22 08:08:47;;;;;;;;;4.00;4.00;;;;;19.94;56.37;100074.26;105638;1279;19938;-64
2022/12/22 08:11:15;;;;;;;;;7.00;5.00;;;;;19.96;56.67;100068.33;105604;1272;18302;-63
2022/12/22 08:13:43;;;;;;;;;4.00;4.00;;;;;19.98;56.89;100063.52;105596;1279;18531;-64
2022/12/22 08:16:10;;;;;;;;;4.00;4.00;;;;;19.99;56.85;100060.55;105555;1296;19302;-64
2022/12/22 08:18:38;;;;;;;;;4.00;4.00;;;;;19.98;56.83;100056.13;105564;1282;22981;-65
2022/12/22 08:21:05;;;;;;;;;2.00;2.00;;;;;19.98;56.85;100055.36;105616;1275;18835;-63
2022/12/22 08:23:32;;;;;;;;;3.50;3.00;;;;;19.98;57.00;100044.14;105668;1298;19186;-64
2022/12/22 08:26:00;;;;;;;;;4.00;4.00;;;;;19.98;57.15;100049.55;105667;1298;19581;-66
2022/12/22 08:28:27;;;;;;;;;4.50;4.00;;;;;19.98;56.94;100042.89;105667;1296;18521;-64
2022/12/22 08:30:55;;;;;;;;;4.00;4.00;;;;;19.98;57.07;100038.67;105664;1288;20185;-65
2022/12/22 08:33:22;;;;;;;;;2.00;2.00;;;;;19.98;57.21;100033.66;105700;1282;18514;-65
2022/12/22 08:35:50;;;;;;;;;5.00;5.00;;;;;19.96;57.04;100028.58;105661;1282;18800;-65
2022/12/22 08:38:18;;;;;;;;;5.00;5.00;;;;;19.95;57.04;100025.43;105654;1296;19717;-65
2022/12/22 08:40:45;;;;;;;;;8.00;5.00;;;;;19.96;57.05;100022.13;105678;1272;18507;-65
2022/12/22 08:43:13;;;;;;;;;5.00;4.00;;;;;19.97;57.23;100024.10;105655;1288;19625;-64
2022/12/22 08:45:41;;;;;;;;;4.00;4.00;;;;;19.99;57.29;100025.29;105674;1280;19294;-64
2022/12/22 08:48:08;;;;;;;;;;;;;;;20.02;57.02;100025.93;105628;1279;22114;-65
2022/12/22 08:50:36;;;;;;;;;8.00;5.00;;;;;20.00;57.00;100026.30;105641;1294;18239;-65
2022/12/22 08:53:03;;;;;;;;;7.00;5.00;;;;;20.01;56.97;100021.87;105671;1279;19408;-65
2022/12/22 08:55:31;;;;;;;;;6.50;5.00;;;;;20.02;57.02;100026.48;105629;1279;18639;-65
2022/12/22 08:58:01;;;;;;;;;5.00;5.00;;;;;20.00;57.23;100021.61;105617;1282;28832;-65
2022/12/22 09:00:29;;;;;;;;;5.00;5.00;;;;;19.97;57.21;100019.04;105597;1279;19570;-64
2022/12/22 09:02:56;;;;;;;;;6.00;5.00;;;;;19.94;57.20;100016.55;105650;1279;18709;-65
2022/12/22 09:05:24;;;;;;;;;5.00;5.00;;;;;19.93;57.39;100011.58;105676;1288;18498;-65
2022/12/22 09:07:51;;;;;;;;;5.00;4.00;;;;;19.92;57.50;100009.20;105713;1272;19237;-65
2022/12/22 09:10:19;;;;;;;;;6.00;6.00;;;;;19.91;57.53;100017.05;105656;1272;23404;-65
2022/12/22 09:12:47;;;;;;;;;5.00;5.00;;;;;19.91;57.15;100009.89;105608;1303;19430;-64
2022/12/22 09:15:14;;;;;;;;;5.00;4.50;;;;;19.91;57.15;100003.11;105608;1283;19323;-65
2022/12/22 09:17:42;;;;;;;;;4.50;4.00;;;;;19.93;57.04;99998.51;105646;1279;20901;-65
2022/12/22 09:20:09;;;;;;;;;5.00;5.00;;;;;19.94;56.89;99991.08;105670;1297;22407;-64
2022/12/22 09:22:37;;;;;;;;;5.00;5.00;;;;;19.95;56.96;99987.10;105613;1279;22645;-65
2022/12/22 09:25:04;;;;;;;;;6.00;6.00;;;;;19.95;56.86;99982.16;105632;1282;18462;-64
2022/12/22 09:27:32;;;;;;;;;5.00;5.00;;;;;19.96;56.68;99973.68;105630;1291;18884;-64
2022/12/22 09:29:59;;;;;;;;;7.00;5.00;;;;;19.97;56.70;99974.28;105618;1279;19372;-64
2022/12/22 09:32:27;;;;;;;;;8.00;7.00;;;;;19.96;56.65;99965.45;105573;1271;22262;-65
2022/12/22 09:34:54;;;;;;;;;7.00;5.00;;;;;19.98;56.64;99959.86;105620;1289;20035;-64
2022/12/22 09:37:22;;;;;;;;;8.00;5.00;;;;;20.00;56.35;99954.52;105577;1279;19376;-63
2022/12/22 09:39:49;;;;;;;;;5.00;5.00;;;;;19.99;56.20;99944.95;105569;1279;18531;-64
2022/12/22 09:42:17;;;;;;;;;5.00;5.00;;;;;19.98;56.29;99944.23;105565;1297;18796;-65
2022/12/22 09:44:44;;;;;;;;;5.00;5.00;;;;;19.97;56.06;99939.83;105591;1279;19447;-63
2022/12/22 09:47:12;;;;;;;;;4.00;4.00;;;;;19.96;56.32;99934.55;105696;1291;18616;-63
2022/12/22 09:49:39;;;;;;;;;5.00;4.00;;;;;19.97;56.37;99933.06;105591;1279;18609;-64
2022/12/22 09:52:07;;;;;;;;;7.00;5.00;;;;;19.99;56.33;99931.89;105572;1281;19275;-64
2022/12/22 09:54:34;;;;;;;;;4.00;4.00;;;;;20.02;56.15;99924.50;105565;1272;18424;-64
2022/12/22 09:57:02;;;;;;;;;8.00;7.00;;;;;20.06;56.40;99915.72;105576;1279;18493;-63
2022/12/22 09:59:30;;;;;;;;;7.00;5.00;;;;;20.06;56.11;99905.72;105546;1272;22805;-63
2022/12/22 10:01:57;;;;;;;;;5.00;5.00;;;;;20.06;56.21;99901.54;105595;1279;19227;-64
2022/12/22 10:04:25;;;;;;;;;4.00;4.00;;;;;20.07;56.34;99899.30;105625;1279;18703;-63
2022/12/22 10:06:52;;;;;;;;;7.00;7.00;;;;;20.08;56.20;99901.34;105605;1297;20444;-64
2022/12/22 10:09:20;;;;;;;;;8.50;7.50;;;;;20.06;56.22;99897.59;105595;1279;18629;-64
2022/12/22 10:11:48;;;;;;;;;10.00;8.00;;;;;20.05;56.03;99896.29;105630;1279;18674;-64
2022/12/22 10:14:15;;;;;;;;;6.00;6.00;;;;;20.04;55.93;99889.48;105697;1301;19274;-63
2022/12/22 10:16:43;;;;;;;;;7.00;5.00;;;;;20.06;56.07;99889.77;105656;1272;19032;-64
2022/12/22 10:19:10;;;;;;;;;5.00;5.00;;;;;20.08;55.88;99885.35;105547;1298;19957;-64
2022/12/22 10:21:38;;;;;;;;;9.00;8.00;;;;;20.09;56.00;99881.63;105635;1272;21115;-66
2022/12/22 10:24:05;;;;;;;;;7.50;6.00;;;;;20.09;55.91;99881.80;105616;1279;18410;-65
2022/12/22 10:26:33;;;;;;;;;7.00;5.67;;;;;20.09;56.06;99883.64;105502;1282;18978;-64
2022/12/22 10:29:00;;;;;;;;;5.00;5.00;;;;;20.08;56.34;99877.77;105655;1297;19650;-64
2022/12/22 10:31:28;;;;;;;;;5.00;5.00;;;;;20.09;56.38;99875.98;105547;1289;19751;-64
2022/12/22 10:33:55;;;;;;;;;7.00;6.00;;;;;20.11;56.52;99873.85;105576;1279;18510;-64
2022/12/22 10:36:22;;;;;;;;;8.00;5.00;;;;;20.12;56.59;99870.92;105566;1298;19605;-64
2022/12/22 10:38:50;;;;;;;;;5.00;4.00;;;;;20.12;56.36;99868.91;105518;1291;18420;-64
2022/12/22 10:41:17;;;;;;;;;4.00;4.00;;;;;20.11;56.72;99863.73;105679;1289;18873;-64
2022/12/22 10:43:45;;;;;;;;;4.00;4.00;;;;;20.11;56.84;99865.95;105622;1297;19288;-65
2022/12/22 10:46:12;;;;;;;;;4.50;4.50;;;;;20.10;56.84;99861.89;105620;1282;18711;-66
2022/12/22 10:48:40;;;;;;;;;;;;;;;20.09;56.60;99859.45;105641;1279;19755;-65
2022/12/22 10:51:07;;;;;;;;;5.00;4.50;;;;;20.08;56.68;99859.20;105513;1276;19212;-65
2022/12/22 10:53:35;;;;;;;;;5.00;5.00;;;;;20.06;56.76;99853.53;105614;1279;18404;-67
2022/12/22 10:56:02;;;;;;;;;7.00;5.00;;;;;20.07;56.79;99849.73;105652;1281;22647;-65
2022/12/22 10:58:30;;;;;;;;;7.00;5.00;;;;;20.08;56.88;99849.69;105578;1279;19426;-64
2022/12/22 11:00:57;;;;;;;;;5.00;4.00;;;;;20.09;57.01;99837.60;105576;1282;19505;-64
2022/12/22 11:03:24;;;;;;;;;8.00;4.50;;;;;20.10;56.91;99837.05;105575;1290;23808;-65
2022/12/22 11:05:52;;;;;;;;;4.00;4.00;;;;;20.10;56.90;99828.13;105536;1279;19489;-65
2022/12/22 11:08:19;;;;;;;;;5.00;4.00;;;;;20.09;56.75;99823.00;105627;1289;22733;-65
2022/12/22 11:10:47;;;;;;;;;7.00;7.00;;;;;20.08;56.92;99815.67;105616;1289;18570;-66
2022/12/22 11:13:14;;;;;;;;;5.00;4.50;;;;;20.08;56.77;99813.53;105610;1289;19411;-65
2022/12/22 11:15:42;;;;;;;;;4.00;4.00;;;;;20.07;56.91;99812.73;105633;1295;18771;-66
2022/12/22 11:18:10;;;;;;;;;4.00;4.00;;;;;20.07;56.99;99810.77;105634;1279;20219;-65
2022/12/22 11:20:37;;;;;;;;;6.00;5.00;;;;;20.07;56.94;99801.19;105662;1297;22783;-65
2022/12/22 11:23:05;;;;;;;;;4.00;4.00;;;;;20.09;56.94;99805.46;105624;1297;19544;-65
2022/12/22 11:25:32;;;;;;;;;5.00;5.00;;;;;20.09;57.09;99802.12;105596;1275;20381;-64
2022/12/22 11:28:00;;;;;;;;;5.00;5.00;;;;;20.11;57.41;99795.95;105611;1279;19559;-65
2022/12/22 11:30:27;;;;;;;;;4.50;4.50;;;;;20.12;57.42;99792.91;105595;1282;18538;-64
2022/12/22 11:32:54;;;;;;;;;4.00;4.00;;;;;20.11;57.06;99790.70;105622;1274;20245;-64
2022/12/22 11:35:24;;;;;;;;;5.00;4.00;;;;;20.11;57.26;99787.02;105664;1291;19286;-65
2022/12/22 11:37:51;;;;;;;;;5.00;4.00;;;;;20.10;57.33;99780.59;105581;1282;20772;-63
2022/12/22 11:40:19;;;;;;;;;4.00;4.00;;;;;20.09;57.32;99779.11;105590;1279;20954;-65
2022/12/22 11:42:46;;;;;;;;;7.00;7.00;;;;;20.08;57.42;99775.75;105523;1272;20958;-65
2022/12/22 11:45:14;;;;;;;;;5.00;4.00;;;;;20.08;57.44;99773.02;105570;1279;18413;-64
2022/12/22 11:47:41;;;;;;;;;4.00;4.00;;;;;20.11;57.33;99767.45;105534;1296;20094;-65
2022/12/22 11:50:09;;;;;;;;;7.00;4.00;;;;;20.11;57.36;99757.46;105566;1279;19284;-64
2022/12/22 11:52:36;;;;;;;;;5.00;5.00;;;;;20.10;57.31;99757.02;105565;1282;18360;-63
2022/12/22 11:55:04;;;;;;;;;5.00;5.00;;;;;20.10;57.28;99754.69;105564;1289;21968;-64
2022/12/22 11:57:31;;;;;;;;;4.00;4.00;;;;;20.08;57.44;99752.10;105526;1279;19386;-64
2022/12/22 11:59:58;;;;;;;;;4.00;4.00;;;;;20.09;57.68;99746.46;105596;1281;18372;-64
2022/12/22 12:02:26;;;;;;;;;2.00;2.00;;;;;20.10;57.53;99745.97;105666;1297;18670;-65
2022/12/22 12:04:53;;;;;;;;;4.50;4.00;;;;;20.13;57.53;99739.55;105678;1279;19331;-63
2022/12/22 12:07:23;;;;;;;;;4.50;4.50;;;;;20.13;57.34;99740.48;105654;1279;20734;-65
2022/12/22 12:09:51;;;;;;;;;8.00;5.00;;;;;20.12;57.45;99741.22;105613;1280;18530;-66
2022/12/22 12:12:18;;;;;;;;;5.00;5.00;;;;;20.10;57.53;99741.25;105605;1272;22384;-67
2022/12/22 12:14:46;;;;;;;;;5.00;5.00;;;;;20.10;57.32;99739.48;105610;1272;18524;-67
2022/12/22 12:17:13;;;;;;;;;4.50;4.50;;;;;20.07;57.30;99736.98;105631;1279;18671;-64
2022/12/22 12:19:42;;;;;;;;;7.00;7.00;;;;;20.04;57.40;99740.39;105624;1280;21793;-65
2022/12/22 12:22:10;;;;;;;;;5.00;4.00;;;;;20.02;57.09;99734.48;105581;1279;20929;-64
2022/12/22 12:24:39;;;;;;;;;4.00;4.00;;;;;20.01;57.34;99730.75;105574;1289;18595;-65
2022/12/22 12:27:06;;;;;;;;;5.00;5.00;;;;;20.01;57.67;99733.14;105601;1288;20902;-65
2022/12/22 12:29:34;;;;;;;;;4.00;4.00;;;;;20.00;57.62;99728.15;105656;1297;19519;-64
2022/12/22 12:32:01;;;;;;;;;4.00;4.00;;;;;20.00;57.55;99727.69;105630;1296;18416;-66
2022/12/22 12:34:29;;;;;;;;;4.00;4.00;;;;;19.99;57.31;99725.64;105666;1280;21318;-65
2022/12/22 12:36:56;;;;;;;;;5.00;4.50;;;;;19.98;57.47;99723.23;105709;1297;22592;-66
2022/12/22 12:39:24;;;;;;;;;4.00;3.00;;;;;19.97;57.21;99720.02;105640;1298;18648;-66
2022/12/22 12:41:51;;;;;;;;;5.00;4.00;;;;;19.97;57.33;99718.20;105620;1292;20833;-65
2022/12/22 12:44:19;;;;;;;;;3.00;3.00;;;;;19.97;57.30;99713.69;105665;1296;19754;-64
2022/12/22 12:46:46;;;;;;;;;4.00;4.00;;;;;19.98;57.08;99714.33;105650;1274;21927;-65
2022/12/22 12:49:14;;;;;;;;;;;;;;;19.98;56.95;99711.73;105558;1281;19285;-66
2022/12/22 12:51:41;;;;;;;;;4.00;3.00;;;;;19.98;57.15;99701.30;105612;1282;20284;-66
2022/12/22 12:54:09;;;;;;;;;4.00;4.00;;;;;19.97;56.94;99698.29;105591;1289;20969;-65
2022/12/22 12:56:36;;;;;;;;;5.00;5.00;;;;;19.97;56.76;99703.52;105599;1280;19331;-66
2022/12/22 12:59:03;;;;;;;;;5.00;4.00;;;;;19.97;56.73;99695.43;105651;1289;20019;-65
2022/12/22 13:01:31;;;;;;;;;5.00;5.00;;;;;19.97;56.93;99699.36;105547;1289;22577;-65
2022/12/22 13:03:58;;;;;;;;;4.00;4.00;;;;;19.96;56.89;99691.88;105530;1272;22126;-65
2022/12/22 13:06:26;;;;;;;;;7.00;5.00;;;;;19.96;56.80;99685.61;105573;1279;21734;-66
2022/12/22 13:08:55;;;;;;;;;4.00;4.00;;;;;19.99;56.67;99685.09;105636;1279;18531;-65
2022/12/22 13:11:22;;;;;;;;;4.50;4.50;;;;;20.05;57.07;99685.01;105707;1298;19379;-64
2022/12/22 13:13:50;;;;;;;;;5.00;4.00;;;;;20.06;57.17;99678.19;105631;1288;19520;-65
2022/12/22 13:16:18;;;;;;;;;4.00;4.00;;;;;20.08;57.24;99677.32;105622;1282;21711;-65
2022/12/22 13:18:46;;;;;;;;;4.00;4.00;;;;;20.10;57.51;99672.08;105628;1282;20802;-65
2022/12/22 13:21:13;;;;;;;;;4.00;4.00;;;;;20.11;57.71;99666.11;105607;1294;19573;-66
2022/12/22 13:23:41;;;;;;;;;4.00;4.00;;;;;20.10;57.51;99665.83;105551;1272;18504;-66
2022/12/22 13:26:08;;;;;;;;;5.00;5.00;;;;;20.10;57.83;99665.88;105557;1272;21890;-66
2022/12/22 13:28:35;;;;;;;;;5.00;5.00;;;;;20.14;57.90;99667.48;105503;1272;20850;-66
2022/12/22 13:31:03;;;;;;;;;4.00;4.00;;;;;20.16;58.01;99665.83;105614;1279;18517;-66
2022/12/22 13:33:31;;;;;;;;;4.00;4.00;;;;;20.16;58.42;99663.73;105609;1272;21911;-66
2022/12/22 13:35:58;;;;;;;;;2.00;2.00;;;;;20.18;58.66;99663.05;105568;1282;18409;-66
2022/12/22 13:38:26;;;;;;;;;5.00;5.00;;;;;20.19;58.42;99660.79;105579;1280;18640;-67
2022/12/22 13:40:53;;;;;;;;;5.00;5.00;;;;;20.22;58.55;99658.26;105550;1281;27603;-66
2022/12/22 13:43:21;;;;;;;;;4.00;4.00;;;;;20.26;58.53;99660.62;105484;1272;18446;-65
2022/12/22 13:45:49;;;;;;;;;7.00;7.00;;;;;20.28;58.88;99657.08;105508;1272;18462;-66
2022/12/22 13:48:16;;;;;;;;;6.00;4.50;;;;;20.33;59.11;99656.89;105563;1282;19627;-64
2022/12/22 13:50:44;;;;;;;;;7.00;7.00;;;;;20.38;59.19;99653.15;105501;1279;18527;-65
2022/12/22 13:53:11;;;;;;;;;7.00;7.00;;;;;20.42;59.61;99654.83;105504;1276;18637;-65
2022/12/22 13:55:38;;;;;;;;;8.00;8.00;;;;;20.43;59.67;99653.12;105508;1279;20678;-62
2022/12/22 13:58:06;;;;;;;;;;;;;;;20.47;59.77;99648.30;105554;1280;18432;-63
2022/12/22 14:00:34;;;;;;;;;8.50;8.00;;;;;20.49;59.99;99643.75;105542;1288;18252;-61
2022/12/22 14:03:01;;;;;;;;;9.50;8.00;;;;;20.49;60.52;99638.92;105549;1272;20668;-63
2022/12/22 14:05:29;;;;;;;;;8.00;7.50;;;;;20.51;60.71;99642.92;105586;1272;19519;-62
2022/12/22 14:07:56;;;;;;;;;8.00;8.00;;;;;20.51;60.58;99637.06;105634;1275;18450;-64
2022/12/22 14:10:24;;;;;;;;;8.00;7.50;;;;;20.51;60.90;99639.91;105520;1272;19365;-64
2022/12/22 14:12:51;;;;;;;;;7.00;7.00;;;;;20.51;61.14;99646.11;105558;1279;19204;-63
2022/12/22 14:15:19;;;;;;;;;5.00;5.00;;;;;20.53;61.84;99640.58;105588;1279;18877;-64
2022/12/22 14:17:46;;;;;;;;;9.00;9.00;;;;;20.55;62.18;99637.98;105520;1281;19252;-62
2022/12/22 14:20:14;;;;;;;;;8.00;7.00;;;;;20.54;62.17;99637.79;105559;1295;18445;-63
2022/12/22 14:22:41;;;;;;;;;5.00;5.00;;;;;20.51;62.06;99636.77;105589;1280;22193;-63
2022/12/22 14:25:08;;;;;;;;;4.00;4.00;;;;;20.51;62.24;99637.61;105572;1279;19310;-63
2022/12/22 14:27:36;;;;;;;;;8.00;5.00;;;;;20.49;62.59;99629.84;105609;1272;19754;-63
2022/12/22 14:30:03;;;;;;;;;6.00;6.00;;;;;20.47;62.31;99628.21;105613;1282;22718;-61
2022/12/22 14:32:31;;;;;;;;;7.00;6.00;;;;;20.42;62.27;99630.58;105541;1279;20899;-61
2022/12/22 14:34:58;;;;;;;;;4.00;4.00;;;;;20.40;62.41;99628.72;105630;1272;19774;-61
2022/12/22 14:37:26;;;;;;;;;4.50;4.50;;;;;20.37;62.35;99628.20;105469;1275;19036;-61
2022/12/22 14:39:53;;;;;;;;;3.00;3.00;;;;;20.35;62.22;99628.08;105558;1279;20904;-62
2022/12/22 14:42:21;;;;;;;;;5.00;5.00;;;;;20.35;62.46;99625.52;105561;1288;18480;-61
2022/12/22 14:44:48;;;;;;;;;4.00;4.00;;;;;20.42;62.65;99624.64;105573;1279;20036;-62
2022/12/22 14:47:16;;;;;;;;;4.00;4.00;;;;;20.40;62.74;99618.96;105494;1297;20744;-62
2022/12/22 14:49:43;;;;;;;;;5.00;5.00;;;;;20.38;62.78;99619.53;105391;1279;23611;-61
2022/12/22 14:52:11;;;;;;;;;5.00;4.00;;;;;20.38;62.69;99616.48;105512;1279;19931;-62
2022/12/22 14:54:38;;;;;;;;;7.00;7.00;;;;;20.37;62.93;99613.89;105522;1282;19286;-62
2022/12/22 14:57:06;;;;;;;;;5.00;5.00;;;;;20.34;62.95;99612.10;105414;1289;18377;-62
2022/12/22 14:59:33;;;;;;;;;5.00;5.00;;;;;20.32;62.96;99611.59;105526;1281;18539;-62
2022/12/22 15:02:00;;;;;;;;;4.50;4.00;;;;;20.32;62.92;99610.50;105568;1279;23299;-62
2022/12/22 15:04:28;;;;;;;;;5.00;5.00;;;;;20.31;62.85;99611.21;105498;1282;18565;-61
2022/12/22 15:06:55;;;;;;;;;4.00;4.00;;;;;20.29;62.61;99616.36;105559;1281;18648;-62